Map

Track Data

SID SEASON NUMBER BASIN SUBBASIN NAME ISO_TIME NATURE LAT LON WMO_WIND WMO_PRES WMO_AGENCY TRACK_TYPE DIST2LAND LANDFALL IFLAG USA_AGENCY USA_ATCF_ID USA_LAT USA_LON USA_RECORD USA_STATUS USA_WIND USA_PRES USA_SSHS USA_R34_NE USA_R34_SE USA_R34_SW USA_R34_NW USA_R50_NE USA_R50_SE USA_R50_SW USA_R50_NW USA_R64_NE USA_R64_SE USA_R64_SW USA_R64_NW USA_POCI USA_ROCI USA_RMW USA_EYE TOKYO_LAT TOKYO_LON TOKYO_GRADE TOKYO_WIND TOKYO_PRES TOKYO_R50_DIR TOKYO_R50_LONG TOKYO_R50_SHORT TOKYO_R30_DIR TOKYO_R30_LONG TOKYO_R30_SHORT TOKYO_LAND CMA_LAT CMA_LON CMA_CAT CMA_WIND CMA_PRES HKO_LAT HKO_LON HKO_CAT HKO_WIND HKO_PRES NEWDELHI_LAT NEWDELHI_LON NEWDELHI_GRADE NEWDELHI_WIND NEWDELHI_PRES NEWDELHI_CI NEWDELHI_DP NEWDELHI_POCI REUNION_LAT REUNION_LON REUNION_TYPE REUNION_WIND REUNION_PRES REUNION_TNUM REUNION_CI REUNION_RMW REUNION_R34_NE REUNION_R34_SE REUNION_R34_SW REUNION_R34_NW REUNION_R50_NE REUNION_R50_SE REUNION_R50_SW REUNION_R50_NW REUNION_R64_NE REUNION_R64_SE REUNION_R64_SW REUNION_R64_NW BOM_LAT BOM_LON BOM_TYPE BOM_WIND BOM_PRES BOM_TNUM BOM_CI BOM_RMW BOM_R34_NE BOM_R34_SE BOM_R34_SW BOM_R34_NW BOM_R50_NE BOM_R50_SE BOM_R50_SW BOM_R50_NW BOM_R64_NE BOM_R64_SE BOM_R64_SW BOM_R64_NW BOM_ROCI BOM_POCI BOM_EYE BOM_POS_METHOD BOM_PRES_METHOD NADI_LAT NADI_LON NADI_CAT NADI_WIND NADI_PRES WELLINGTON_LAT WELLINGTON_LON WELLINGTON_WIND WELLINGTON_PRES DS824_LAT DS824_LON DS824_STAGE DS824_WIND DS824_PRES TD9636_LAT TD9636_LON TD9636_STAGE TD9636_WIND TD9636_PRES TD9635_LAT TD9635_LON TD9635_WIND TD9635_PRES TD9635_ROCI NEUMANN_LAT NEUMANN_LON NEUMANN_CLASS NEUMANN_WIND NEUMANN_PRES MLC_LAT MLC_LON MLC_CLASS MLC_WIND MLC_PRES USA_GUST BOM_GUST BOM_GUST_PER REUNION_GUST REUNION_GUST_PER USA_SEAHGT USA_SEARAD_NE USA_SEARAD_SE USA_SEARAD_SW USA_SEARAD_NW STORM_SPEED STORM_DIR
1970078S11098 1970 31 SI WA KATHY:MICHELE 1970-03-19 00:00:00 NR -11.0000 98.0000 1006 bom main 906 878 ______O_______ -1 -11.0000 98.0000 1006 10 339
1970078S11098 1970 31 SI WA KATHY:MICHELE 1970-03-19 03:00:00 NR -10.5425 97.8225 main 876 850 ______P_______ -1 -10.5425 97.8225 10 339
1970078S11098 1970 31 SI WA KATHY:MICHELE 1970-03-19 06:00:00 NR -10.0927 97.6383 main 857 830 ______P_______ -1 -10.0927 97.6383 10 337
1970078S11098 1970 31 SI WA KATHY:MICHELE 1970-03-19 09:00:00 NR -9.65869 97.4406 main 837 811 ______P_______ -1 -9.65869 97.4406 9 334
1970078S11098 1970 31 SI WA KATHY:MICHELE 1970-03-19 12:00:00 NR -9.24828 97.2221 main 810 802 ______P_______ -1 -9.24828 97.2221 9 330
1970078S11098 1970 31 SI WA KATHY:MICHELE 1970-03-19 15:00:00 NR -8.86940 96.9759 main 802 795 ______P_______ -1 -8.86940 96.9759 9 324
1970078S11098 1970 31 SI WA KATHY:MICHELE 1970-03-19 18:00:00 NR -8.52987 96.6949 main 796 783 ______P_______ -1 -8.52987 96.6949 9 317
1970078S11098 1970 31 SI WA KATHY:MICHELE 1970-03-19 21:00:00 NR -8.23749 96.3720 main 777 770 ______P_______ -1 -8.23749 96.3720 9 308
1970078S11098 1970 31 SI WA KATHY:MICHELE 1970-03-20 00:00:00 NR -8.00000 96.0000 1004 bom main 775 770 ______O_______ -1 -8.00000 96.0000 1004 9 298
1970078S11098 1970 31 SI WA KATHY:MICHELE 1970-03-20 03:00:00 NR -7.82313 95.5768 main 775 775 ______P_______ -1 -7.82313 95.5768 9 289
1970078S11098 1970 31 SI WA KATHY:MICHELE 1970-03-20 06:00:00 NR -7.70469 95.1207 main 793 793 ______P_______ -1 -7.70469 95.1207 9 281
1970078S11098 1970 31 SI WA KATHY:MICHELE 1970-03-20 09:00:00 NR -7.64063 94.6549 main 808 808 ______P_______ -1 -7.64063 94.6549 9 275
1970078S11098 1970 31 SI WA KATHY:MICHELE 1970-03-20 12:00:00 NR -7.62697 94.2029 main 841 841 ______P_______ -1 -7.62697 94.2029 9 269
1970078S11098 1970 31 SI WA KATHY:MICHELE 1970-03-20 15:00:00 NR -7.65985 93.7879 main 878 878 ______P_______ -1 -7.65985 93.7879 8 262
1970078S11098 1970 31 SI WA KATHY:MICHELE 1970-03-20 18:00:00 NR -7.73547 93.4335 main 907 907 ______P_______ -1 -7.73547 93.4335 6 253
1970078S11098 1970 31 SI WA KATHY:MICHELE 1970-03-20 21:00:00 NR -7.85009 93.1630 main 939 939 ______P_______ -1 -7.85009 93.1630 5 238
1970078S11098 1970 31 SI WA KATHY:MICHELE 1970-03-21 00:00:00 NR -8.00000 93.0000 1002 bom main 962 962 ______O_______ -1 -8.00000 93.0000 1002 3 185
1970078S11098 1970 31 SI WA KATHY:MICHELE 1970-03-21 03:00:00 NR -8.13977 93.1381 main 963 956 ______P_______ -1 -8.13977 93.1381 5 129
1970078S11098 1970 31 SI WA KATHY:MICHELE 1970-03-21 06:00:00 NR -8.31982 93.3966 main 958 953 ______P_______ -1 -8.31982 93.3966 7 124
1970078S11098 1970 31 SI WA KATHY:MICHELE 1970-03-21 09:00:00 NR -8.53561 93.7312 main 955 948 ______P_______ -1 -8.53561 93.7312 8 124
1970078S11098 1970 31 SI WA KATHY:MICHELE 1970-03-21 12:00:00 NR -8.78270 94.0980 main 956 950 ______P_______ -1 -8.78270 94.0980 9 126
1970078S11098 1970 31 SI WA KATHY:MICHELE 1970-03-21 15:00:00 NR -9.05675 94.4526 main 961 961 ______P_______ -1 -9.05675 94.4526 9 132
1970078S11098 1970 31 SI WA KATHY:MICHELE 1970-03-21 18:00:00 NR -9.35363 94.7509 main 974 974 ______P_______ -1 -9.35363 94.7509 8 141
1970078S11098 1970 31 SI WA KATHY:MICHELE 1970-03-21 21:00:00 NR -9.66934 94.9482 main 999 994 ______P_______ -1 -9.66934 94.9482 7 159
1970078S11098 1970 31 SI WA KATHY:MICHELE 1970-03-22 00:00:00 NR -10.0000 95.0000 1002 bom main 1024 1024 ______O_______ -1 -10.0000 95.0000 1002 8 203
1970078S11098 1970 31 SI WA KATHY:MICHELE 1970-03-22 03:00:00 NR -10.3928 94.6295 main 1084 1084 ______P_______ -1 -10.3928 94.6295 12 227
1970078S11098 1970 31 SI WA KATHY:MICHELE 1970-03-22 06:00:00 NR -10.8134 94.1081 main 1149 1149 ______P_______ -1 -10.8134 94.1081 14 233
1970078S11098 1970 31 SI WA KATHY:MICHELE 1970-03-22 09:00:00 NR -11.2433 93.4850 main 1220 1220 ______P_______ -1 -11.2433 93.4850 15 236
1970078S11098 1970 31 SI WA KATHY:MICHELE 1970-03-22 12:00:00 NR -11.6639 92.8099 main 1307 1307 ______P_______ -1 -11.6639 92.8099 16 238
1970078S11098 1970 31 SI WA KATHY:MICHELE 1970-03-22 15:00:00 NR -12.0572 92.1331 main 1385 1385 ______P_______ -1 -12.0572 92.1331 15 240
1970078S11098 1970 31 SI WA KATHY:MICHELE 1970-03-22 18:00:00 NR -12.4056 91.5052 main 1450 1450 ______P_______ -1 -12.4056 91.5052 13 241
1970078S11098 1970 31 SI WA KATHY:MICHELE 1970-03-22 21:00:00 NR -12.6921 90.9771 main 1509 1509 ______P_______ -1 -12.6921 90.9771 10 241
1970078S11098 1970 31 SI WA KATHY:MICHELE 1970-03-23 00:00:00 TS -12.9000 90.6000 1000 bom main 1552 1552 O_____O__OO___ jtwc_sh SH271970 -12.9000 90.6000 -1 -12.9000 90.6000 1000 -12.9000 90.6000 TC 25 -12.9000 90.6000 1 6 238
1970078S11098 1970 31 SI WA KATHY:MICHELE 1970-03-23 03:00:00 TS -13.0106 90.4543 main 1568 1568 P_____P__PP___ SH271970 -13.0100 90.4775 -1 -13.0235 90.4526 -13.0100 90.4775 TC 25 -12.9859 90.4111 1 4 239
1970078S11098 1970 31 SI WA KATHY:MICHELE 1970-03-23 06:00:00 TS -13.0925 90.2787 bom main 1590 1590 O_____O__OP___ jtwc_sh SH271970 -13.1000 90.3000 -1 -13.1000 90.3000 -13.1000 90.3000 TC 25 -13.0674 90.2077 1 5 251
1970078S11098 1970 31 SI WA KATHY:MICHELE 1970-03-23 09:00:00 TS -13.1532 90.0164 main 1618 1618 P_____P__PP___ SH271970 -13.1575 90.0300 -1 -13.1575 90.0300 -13.1575 90.0300 TC 25 -13.1403 89.9755 1 6 259
1970078S11098 1970 31 SI MM KATHY:MICHELE 1970-03-23 12:00:00 TS -13.2000 89.7000 bom main 1639 1639 O_____O__OO___ jtwc_sh SH271970 -13.2000 89.7000 -1 -13.2000 89.7000 -13.2000 89.7000 TC 25 -13.2000 89.7000 1 6 261
1970078S11098 1970 31 SI MM KATHY:MICHELE 1970-03-23 15:00:00 TS -13.2487 89.3667 main 1659 1659 P_____P__PP___ SH271970 -13.2499 89.3650 -1 -13.2499 89.3650 -13.2499 89.3650 TC 25 -13.2451 89.3720 1 7 262
1970078S11098 1970 31 SI MM KATHY:MICHELE 1970-03-23 18:00:00 TS -13.2963 89.0005 bom main 1696 1696 O_____O__OP___ jtwc_sh SH271970 -13.3000 89.0000 -1 -13.3000 89.0000 -13.3000 89.0000 TC 25 -13.2851 89.0022 1 7 263
1970078S11098 1970 31 SI MM KATHY:MICHELE 1970-03-23 21:00:00 TS -13.3400 88.6072 main 1725 1725 P_____P__PP___ SH271970 -13.3425 88.6074 -1 -13.3425 88.6074 -13.3425 88.6074 TC 30 -13.3325 88.6063 1 8 262
1970078S11098 1970 31 SI MM KATHY:MICHELE 1970-03-24 00:00:00 TS -13.4000 88.2000 995 bom main 1762 1762 O_____O__OO___ jtwc_sh SH271970 -13.4000 88.2000 -1 -13.4000 88.2000 995 -13.4000 88.2000 TC 35 -13.4000 88.2000 2 8 259
1970078S11098 1970 31 SI MM KATHY:MICHELE 1970-03-24 03:00:00 TS -13.4885 87.8018 main 1800 1800 P_____P__PP___ SH271970 -13.4849 87.8000 -1 -13.4849 87.8000 -13.4849 87.8000 TC 35 -13.4992 87.8072 2 8 246
1970078S11098 1970 31 SI MM KATHY:MICHELE 1970-03-24 06:00:00 TS -13.7266 87.4350 bom main 1846 1846 O____OO__OP_O_ jtwc_sh SH271970 -13.6000 87.4000 -1 -14.7000 87.7000 4 9.90000 -13.6000 87.4000 -13.6000 87.4000 TC 35 -13.6198 87.4075 2 -14.7000 87.7000 TC 60 9 238
1970078S11098 1970 31 SI MM KATHY:MICHELE 1970-03-24 09:00:00 TS -13.9591 87.0138 main 1900 1900 P____PP__PP_P_ SH271970 -13.7424 87.0000 -1 -14.8127 87.0652 4 -13.7424 87.0000 -13.7424 87.0000 TC 35 -13.7555 87.0040 2 -14.8127 87.0652 TC 60 10 243
1970078S11098 1970 31 SI MM KATHY:MICHELE 1970-03-24 12:00:00 TS -14.1727 86.5455 bom main 1954 1954 O____OO__OO_O_ jtwc_sh SH271970 -13.9000 86.6000 -1 -14.9000 86.4000 99 9.90000 -13.9000 86.6000 -13.9000 86.6000 TC 35 -13.9000 86.6000 2 -14.9000 86.4000 TC 60 10 248
1970078S11098 1970 31 SI MM KATHY:MICHELE 1970-03-24 15:00:00 TS -14.3487 86.0355 main 2001 2001 P____PP__PP_P_ SH271970 -14.0499 86.2000 -1 -14.9500 85.6924 99 -14.0499 86.2000 -14.0499 86.2000 TC 35 -14.0422 86.2282 2 -14.9500 85.6924 TC 65 10 253
1970078S11098 1970 31 SI MM KATHY:MICHELE 1970-03-24 18:00:00 TS -14.4653 85.5420 bom main 2055 2055 O____OO__OP_O_ jtwc_sh SH271970 -14.2000 85.8000 -1 -15.0000 85.0000 99 9.90000 -14.2000 85.8000 -14.2000 85.8000 TC 35 -14.1916 85.8521 2 -15.0000 85.0000 TC 70 10 255
1970078S11098 1970 31 SI MM KATHY:MICHELE 1970-03-24 21:00:00 TS -14.5940 85.0812 main 2094 2094 P____PP__PP_P_ SH271970 -14.3498 85.4224 -1 -15.0847 84.3849 99 -14.3498 85.4224 -14.3498 85.4224 TC 50 -14.3452 85.4500 2 -15.0847 84.3849 TC 72 10 254
1970078S11098 1970 31 SI MM KATHY:MICHELE 1970-03-25 00:00:00 TS -14.7333 84.6000 990 bom main 2142 2142 O____OO__OO_O_ jtwc_sh SH271970 -14.5000 85.0000 -1 -15.2000 83.8000 99 9.90000 -14.5000 85.0000 990 -14.5000 85.0000 TC 65 -14.5000 85.0000 4 -15.2000 83.8000 TC 75 11 254
1970078S11098 1970 31 SI MM KATHY:MICHELE 1970-03-25 03:00:00 TS -14.8884 84.0331 main 2205 2205 P____PP__PP_P_ SH271970 -14.6500 84.4799 -1 -15.3652 83.1477 99 -14.6500 84.4799 -14.6500 84.4799 TC 65 -14.6503 84.4631 4 -15.3652 83.1477 TC 75 11 255
1970078S11098 1970 31 SI MM KATHY:MICHELE 1970-03-25 06:00:00 TS -15.0334 83.4633 bom main 2254 2254 O____OO__OP_O_ jtwc_sh SH271970 -14.8000 83.9000 -1 -15.5000 82.6000 4 9.90000 -14.8000 83.9000 -14.8000 83.9000 TC 65 -14.8005 83.8800 4 -15.5000 82.6000 TC 75 11 257
1970078S11098 1970 31 SI MM KATHY:MICHELE 1970-03-25 09:00:00 TS -15.1358 82.9652 main 2302 2302 P____PP__PP_P_ SH271970 -14.9500 83.2999 -1 -15.5072 82.3048 4 -14.9500 83.2999 -14.9500 83.2999 TC 65 -14.9503 83.2818 4 -15.5072 82.3048 TC 77 10 258
1970078S11098 1970 31 SI MM KATHY:MICHELE 1970-03-25 12:00:00 TS -15.2333 82.5000 bom main 2351 2351 O____OO__OO_O_ jtwc_sh SH271970 -15.1000 82.7000 -1 -15.5000 82.1000 99 9.90000 -15.1000 82.7000 -15.1000 82.7000 TC 65 -15.1000 82.7000 4 -15.5000 82.1000 TC 80 9 256
1970078S11098 1970 31 SI MM KATHY:MICHELE 1970-03-25 15:00:00 TS -15.3609 82.0214 main 2391 2389 P____PP__PP_P_ SH271970 -15.2499 82.1274 -1 -15.5850 81.8000 99 -15.2499 82.1274 -15.2499 82.1274 TC 65 -15.2458 82.1458 4 -15.5850 81.8000 TC 82 9 254
1970078S11098 1970 31 SI MM KATHY:MICHELE 1970-03-25 18:00:00 TS -15.4987 81.5696 bom main 2399 2398 O____OO__OP_O_ jtwc_sh SH271970 -15.4000 81.6000 -1 -15.7000 81.5000 99 9.90000 -15.4000 81.6000 -15.4000 81.6000 TC 65 -15.3924 81.6174 4 -15.7000 81.5000 TC 85 9 252
1970078S11098 1970 31 SI MM KATHY:MICHELE 1970-03-25 21:00:00 TS -15.6346 81.1588 main 2409 2409 P____PP__PP_P_ SH271970 -15.5499 81.1125 -1 -15.8074 81.2425 99 -15.5499 81.1125 -15.5499 81.1125 TC 65 -15.5428 81.1302 4 -15.8074 81.2425 TC 85 8 250
1970078S11098 1970 31 SI MM KATHY:MICHELE 1970-03-26 00:00:00 TS -15.7667 80.8000 990 bom main 2431 2430 O____OO__OO_O_ jtwc_sh SH271970 -15.7000 80.7000 -1 -15.9000 81.0000 99 9.90000 -15.7000 80.7000 990 -15.7000 80.7000 TC 65 -15.7000 80.7000 4 -15.9000 81.0000 TC 85 7 248
1970078S11098 1970 31 SI MM KATHY:MICHELE 1970-03-26 03:00:00 TS -15.8873 80.5014 main 2442 2413 P____PP__PP_P_ SH271970 -15.8423 80.3774 -1 -15.9649 80.7650 99 -15.8423 80.3774 -15.8423 80.3774 TC 65 -15.8671 80.3463 4 -15.9649 80.7650 TC 82 6 247
1970078S11098 1970 31 SI MM KATHY:MICHELE 1970-03-26 06:00:00 TS -16.0069 80.2245 bom main 2413 2379 O____OO__OP_O_ jtwc_sh SH271970 -16.0000 80.1000 -1 -16.0000 80.5000 4 9.90000 -16.0000 80.1000 -16.0000 80.1000 TC 65 -16.0416 80.0471 4 -16.0000 80.5000 TC 80 6 246
1970078S11098 1970 31 SI MM KATHY:MICHELE 1970-03-26 09:00:00 TS -16.1342 79.9174 main 2379 2342 P____PP__PP_P_ SH271970 -16.2000 79.8000 -1 -15.9925 80.1649 4 -16.2000 79.8000 -16.2000 79.8000 TC 65 -16.2204 79.7744 4 -15.9925 80.1649 TC 77 7 247
1970078S11098 1970 31 SI MM KATHY:MICHELE 1970-03-26 12:00:00 TS -16.2667 79.6000 reunion main 2342 2309 O____OO__OO_O_ jtwc_sh SH271970 -16.4000 79.5000 -1 -16.0000 79.8000 99 9.90000 -16.4000 79.5000 -16.4000 79.5000 TC 65 -16.4000 79.5000 4 -16.0000 79.8000 TC 75 7 247
1970078S11098 1970 31 SI MM KATHY:MICHELE 1970-03-26 15:00:00 TS -16.3902 79.2885 main 2309 2275 P____PP__PP_P_ SH271970 -16.5499 79.2074 -1 -16.0624 79.4574 99 -16.5499 79.2074 -16.5499 79.2074 TC 65 -16.5666 79.1940 4 -16.0624 79.4574 TC 72 7 246
1970078S11098 1970 31 SI MM KATHY:MICHELE 1970-03-26 18:00:00 TS -16.5391 78.9632 reunion main 2275 2228 O____OO__OP_O_ jtwc_sh SH271970 -16.7000 78.9000 -1 -16.2000 79.1000 99 9.90000 -16.7000 78.9000 -16.7000 78.9000 TC 65 -16.7346 78.8795 4 -16.2000 79.1000 TC 70 7 241
1970078S11098 1970 31 SI MM KATHY:MICHELE 1970-03-26 21:00:00 TS -16.7454 78.6101 main 2228 2189 P____PP__PP_P_ SH271970 -16.8924 78.5650 -1 -16.4425 78.7076 99 -16.8924 78.5650 -16.8924 78.5650 TC 65 -16.9103 78.5502 4 -16.4425 78.7076 TC 70 8 239
1970078S11098 1970 31 SI MM KATHY:MICHELE 1970-03-27 00:00:00 TS -16.9667 78.2333 reunion main 2179 2145 O____OO__OO_O_ jtwc_sh SH271970 -17.1000 78.2000 -1 -16.7000 78.3000 99 9.90000 -17.1000 78.2000 990 -17.1000 78.2000 TC 65 -17.1000 78.2000 4 -16.7000 78.3000 TC 70 8 241
1970078S11098 1970 31 SI MM KATHY:MICHELE 1970-03-27 03:00:00 TS -17.1512 77.8429 main 2132 2099 P____PP__PP_P_ SH271970 -17.2925 77.8074 -1 -16.8573 77.9147 99 -17.2925 77.8074 -17.2925 77.8074 TC 65 -17.3149 77.8055 4 -16.8573 77.9147 TC 70 9 244
1970078S11098 1970 31 SI MM KATHY:MICHELE 1970-03-27 06:00:00 TS -17.3405 77.4321 reunion main 2089 2040 O____OO__OP_O_ jtwc_sh SH271970 -17.5000 77.4000 -1 -17.0000 77.5000 4 9.90000 -17.5000 77.4000 -17.5000 77.4000 TC 65 -17.5428 77.3927 4 -17.0000 77.5000 TC 70 9 243
1970078S11098 1970 31 SI MM KATHY:MICHELE 1970-03-27 09:00:00 TS -17.5658 76.9848 main 2040 1994 P____PP__PP_P_ SH271970 -17.7500 76.9850 -1 -17.1852 76.9850 4 -17.7500 76.9850 -17.7500 76.9850 TC 65 -17.7742 76.9836 4 -17.1852 76.9850 TC 70 9 241
1970078S11098 1970 31 SI MM KATHY:MICHELE 1970-03-27 12:00:00 TS -17.8000 76.5667 reunion main 1994 1959 O____OO__OO_O_ jtwc_sh SH271970 -18.0000 76.6000 -1 -17.4000 76.5000 99 9.90000 -18.0000 76.6000 -18.0000 76.6000 TC 65 -18.0000 76.6000 4 -17.4000 76.5000 TC 70 9 238
1970078S11098 1970 31 SI MM KATHY:MICHELE 1970-03-27 15:00:00 TS -18.0214 76.2337 main 1948 1923 P____PP__PP_P_ SH271970 -18.2074 76.2848 -1 -17.6499 76.1325 99 -18.2074 76.2848 -18.2074 76.2848 TC 50 -18.2066 76.2829 4 -17.6499 76.1325 TC 70 7 233
1970078S11098 1970 31 SI MM KATHY:MICHELE 1970-03-27 18:00:00 TS -18.2345 75.9653 reunion main 1923 1899 O____OO__OP_O_ jtwc_sh SH271970 -18.4000 76.0000 -1 -17.9000 75.9000 99 9.90000 -18.4000 76.0000 -18.4000 76.0000 TC 35 -18.4068 75.9918 4 -17.9000 75.9000 TC 70 6 226
1970078S11098 1970 31 SI MM KATHY:MICHELE 1970-03-27 21:00:00 TS -18.4261 75.7891 main 1899 1875 P____PP__PP_P_ SH271970 -18.5999 75.7074 -1 -18.0766 75.9539 99 -18.5999 75.7074 -18.5999 75.7074 TC 35 -18.6035 75.7048 4 -18.0766 75.9539 TC 70 6 226
1970078S11098 1970 31 SI MM KATHY:MICHELE 1970-03-28 00:00:00 TS -18.6333 75.5333 reunion main 1864 1807 O____OO__OO_O_ jtwc_sh SH271970 -18.8000 75.4000 -1 -18.3000 75.8000 99 9.90000 -18.8000 75.4000 990 -18.8000 75.4000 TC 35 -18.8000 75.4000 2 -18.3000 75.8000 TC 70 9 238
1970078S11098 1970 31 SI MM KATHY:MICHELE 1970-03-28 03:00:00 TS -18.8925 74.9908 main 1807 1740 P____PP__PP_P_ SH271970 -18.9999 75.0649 -1 -18.6797 74.8539 99 -18.9999 75.0649 -18.9999 75.0649 TC 35 -18.9960 75.0423 2 -18.6797 74.8539 TC 67 12 244
1970078S11098 1970 31 SI MM KATHY:MICHELE 1970-03-28 06:00:00 TS -19.1654 74.3941 reunion main 1740 1696 O____OO__OP_O_ jtwc_sh SH271970 -19.2000 74.7000 -1 -19.1000 73.8000 4 9.90000 -19.2000 74.7000 -19.2000 74.7000 TC 35 -19.1925 74.6647 2 -19.1000 73.8000 TC 65 11 241
1970078S11098 1970 31 SI MM KATHY:MICHELE 1970-03-28 09:00:00 TS -19.4277 73.9614 main 1696 1651 P____PP__PP_P_ SH271970 -19.4000 74.3000 -1 -19.4866 73.2945 4 -19.4000 74.3000 -19.4000 74.3000 TC 35 -19.3928 74.2798 2 -19.4866 73.2945 TC 62 9 236
1970078S11098 1970 31 SI MM KATHY:MICHELE 1970-03-28 12:00:00 TS -19.6667 73.6000 reunion main 1651 1619 O____OO__OO_O_ jtwc_sh SH271970 -19.6000 73.9000 -1 -19.8000 73.0000 99 9.90000 -19.6000 73.9000 -19.6000 73.9000 TC 35 -19.6000 73.9000 2 -19.8000 73.0000 TC 60 8 238
1970078S11098 1970 31 SI MM KATHY:MICHELE 1970-03-28 15:00:00 TS -19.8491 73.2501 main 1619 1575 P____PP__PP_P_ SH271970 -19.7924 73.5423 -1 -19.9499 72.6696 99 -19.7924 73.5423 -19.7924 73.5423 TC 35 -19.8176 73.5345 2 -19.9499 72.6696 TC 60 7 239
1970078S11098 1970 31 SI MM KATHY:MICHELE 1970-03-28 18:00:00 TS -20.0404 72.9295 reunion main 1575 1542 O____OO__OP_O_ jtwc_sh SH271970 -20.0000 73.2000 -1 -20.1000 72.4000 99 9.90000 -20.0000 73.2000 -20.0000 73.2000 TC 35 -20.0423 73.1773 2 -20.1000 72.4000 TC 60 7 232
1970078S11098 1970 31 SI MM KATHY:MICHELE 1970-03-28 21:00:00 TS -20.3126 72.6289 main 1542 1520 P____PP__PP_P_ SH271970 -20.2500 72.8425 -1 -20.4273 72.2073 99 -20.2500 72.8425 -20.2500 72.8425 TC 35 -20.2708 72.8314 2 -20.4273 72.2073 TC 57 8 225
1970078S11098 1970 31 SI MM KATHY:MICHELE 1970-03-29 00:00:00 TS -20.6000 72.3333 reunion main 1510 1478 O____OO__OO_O_ jtwc_sh SH271970 -20.5000 72.5000 -1 -20.8000 72.0000 99 9.90000 -20.5000 72.5000 -20.5000 72.5000 TC 35 -20.5000 72.5000 2 -20.8000 72.0000 TC 55 8 228
1970078S11098 1970 31 SI MM KATHY:MICHELE 1970-03-29 03:00:00 TS -20.8361 72.0128 main 1478 1447 P____PP__PP_P_ SH271970 -20.6999 72.1923 -1 -21.1001 71.6575 99 -20.6999 72.1923 -20.6999 72.1923 TC 35 -20.7166 72.1852 2 -21.1001 71.6575 TC 52 8 232
1970078S11098 1970 31 SI MM KATHY:MICHELE 1970-03-29 06:00:00 TS -21.0724 71.6974 reunion main 1447 1417 O____OO__OP_O_ jtwc_sh SH271970 -20.9000 71.9000 -1 -21.4000 71.3000 3 9.90000 -20.9000 71.9000 -20.9000 71.9000 TC 35 -20.9346 71.8843 2 -21.4000 71.3000 TC 50 8 228
1970078S11098 1970 31 SI MM KATHY:MICHELE 1970-03-29 09:00:00 TS -21.3404 71.4175 main 1417 1397 P____PP__PP_P_ SH271970 -21.1424 71.5999 -1 -21.7273 71.0570 3 -21.1424 71.5999 -21.1424 71.5999 TC 35 -21.1604 71.5914 2 -21.7273 71.0570 TC 47 8 223
1970078S11098 1970 31 SI MM KATHY:MICHELE 1970-03-29 12:00:00 TS -21.6333 71.1333 reunion main 1388 1359 O____OO__OO_O_ jtwc_sh SH271970 -21.4000 71.3000 -1 -22.1000 70.8000 99 9.90000 -21.4000 71.3000 -21.4000 71.3000 TC 35 -21.4000 71.3000 2 -22.1000 70.8000 TC 45 8 223
1970078S11098 1970 31 SI MM KATHY:MICHELE 1970-03-29 15:00:00 TS -21.9378 70.8093 main 1359 1332 P____PP__PP_P_ SH271970 -21.6424 70.9998 -1 -22.5276 70.4225 99 -21.6424 70.9998 -21.6424 70.9998 TC 30 -21.6441 71.0115 2 -22.5276 70.4225 TC 42 9 224
1970078S11098 1970 31 SI MM KATHY:MICHELE 1970-03-29 18:00:00 TS -22.2674 70.4702 reunion main 1333 1306 O____OO__OP_O_ jtwc_sh SH271970 -21.9000 70.7000 -1 -23.0000 70.0000 99 9.90000 -21.9000 70.7000 -21.9000 70.7000 TC 25 -21.9045 70.7215 2 -23.0000 70.0000 TC 40 9 222
1970078S11098 1970 31 SI MM KATHY:MICHELE 1970-03-29 21:00:00 TS -22.6087 70.1476 main 1297 1281 P____PP__PP_P_ SH271970 -22.1849 70.4073 -1 -23.4547 69.6215 99 -22.1849 70.4073 -22.1849 70.4073 TC 25 -22.1878 70.4207 2 -23.4547 69.6215 TC 40 9 222
1970078S11098 1970 31 SI MM KATHY:MICHELE 1970-03-30 00:00:00 TS -22.9091 69.8545 reunion main 1283 1257 O____OO__OO_O_ jtwc_sh SH271970 -22.5000 70.1000 -1 -24.0000 69.2000 99 9.90000 -22.5000 70.1000 -22.5000 70.1000 TC 25 -22.5000 70.1000 1 -24.0000 69.2000 TC 40 8 223
1970078S11098 1970 31 SI MM KATHY:MICHELE 1970-03-30 03:00:00 TS -23.2106 69.5458 main 1250 1228 P____PP__PP_P_ SH271970 -22.8349 69.7648 -1 -24.7031 68.6820 99 -22.8349 69.7648 -22.8349 69.7648 TC 25 -22.8449 69.7526 1 -24.7031 68.6820 TC 37 9 224
1970078S11098 1970 31 SI MM KATHY:MICHELE 1970-03-30 06:00:00 MX -23.5320 69.2105 reunion main 1228 1211 O____OO__OP_O_ jtwc_sh SH271970 -23.2000 69.4000 -1 -25.5000 68.1000 5 9.90000 -23.2000 69.4000 -23.2000 69.4000 TC 25 -23.2160 69.3823 1 -25.5000 68.1000 TC 35 6 232
1970078S11098 1970 31 SI MM KATHY:MICHELE 1970-03-30 09:00:00 TS -23.5956 69.0050 main 1211 1185 P_____P__PP___ SH271970 -23.5927 69.0080 -1 5 -23.5927 69.0080 -23.5927 69.0080 TC 25 -23.6040 68.9959 1 TC 7 230
1970078S11098 1970 31 SI MM KATHY:MICHELE 1970-03-30 12:00:00 TS -24.0000 68.6000 main 1185 O_____O__OO___ jtwc_sh SH271970 -24.0000 68.6000 -1 -24.0000 68.6000 -24.0000 68.6000 TC 25 -24.0000 68.6000 7 11 222

About IBTrACS Database

This database is a web-friendly format of International Best Track Archive for Climate Stewardship (IBTrACS), a global best track data archive curated by NOAA dating back to 1842.

Updated: 2021-12-06